createdAt,value
2018-03-21T00:01:36.486Z,5.90
2018-03-21T00:04:03.980Z,6.50
2018-03-21T00:06:31.470Z,9.95
2018-03-21T00:08:59.678Z,5.57
2018-03-21T00:11:27.199Z,6.18
2018-03-21T00:13:55.252Z,9.73
2018-03-21T00:16:22.726Z,8.15
2018-03-21T00:18:50.964Z,9.63
2018-03-21T00:21:18.418Z,11.12
2018-03-21T00:23:45.884Z,6.43
2018-03-21T00:26:13.403Z,6.18
2018-03-21T00:28:40.881Z,7.40
2018-03-21T00:31:08.336Z,6.65
2018-03-21T00:33:35.772Z,8.70
2018-03-21T00:36:03.286Z,7.35
2018-03-21T00:38:30.730Z,6.47
2018-03-21T00:40:59.003Z,7.07
2018-03-21T00:43:26.542Z,7.37
2018-03-21T00:45:54.078Z,7.68
2018-03-21T00:48:21.544Z,7.37
2018-03-21T00:50:49.097Z,7.97
2018-03-21T00:53:16.598Z,8.07
2018-03-21T00:55:44.125Z,10.23
2018-03-21T00:58:11.597Z,8.82
2018-03-21T01:00:39.123Z,9.45
2018-03-21T01:03:06.619Z,7.78
2018-03-21T01:05:34.173Z,5.68
2018-03-21T01:08:01.636Z,8.55
2018-03-21T01:10:29.104Z,10.35
2018-03-21T01:12:57.362Z,9.25
2018-03-21T01:15:24.915Z,7.87
2018-03-21T01:17:52.417Z,7.00
2018-03-21T01:20:19.974Z,6.80
2018-03-21T01:22:47.621Z,9.18
2018-03-21T01:25:15.871Z,7.57
2018-03-21T01:27:43.328Z,9.40
2018-03-21T01:30:11.396Z,6.85
2018-03-21T01:32:38.852Z,6.85
2018-03-21T01:35:06.341Z,8.85
2018-03-21T01:37:33.820Z,7.80
2018-03-21T01:42:35.135Z,7.47
2018-03-21T01:45:02.619Z,6.85
2018-03-21T01:47:30.155Z,7.10
2018-03-21T01:49:58.418Z,12.32
2018-03-21T01:52:25.936Z,5.95
2018-03-21T01:54:53.411Z,6.12
2018-03-21T01:57:20.951Z,5.78
2018-03-21T01:59:48.420Z,7.43
2018-03-21T02:02:15.876Z,7.60
2018-03-21T02:04:43.354Z,6.07
2018-03-21T02:07:10.825Z,6.90
2018-03-21T02:09:38.321Z,6.95
2018-03-21T02:12:05.861Z,9.10
2018-03-21T02:14:34.074Z,10.77
2018-03-21T02:17:01.533Z,5.50
2018-03-21T02:19:28.977Z,7.32
2018-03-21T02:21:56.441Z,5.55
2018-03-21T02:24:23.926Z,8.02
2018-03-21T02:26:51.415Z,9.95
2018-03-21T02:29:19.695Z,10.15
2018-03-21T02:31:47.156Z,8.95
2018-03-21T02:34:14.680Z,9.50
2018-03-21T02:36:42.925Z,6.35
2018-03-21T02:39:10.420Z,9.73
2018-03-21T02:41:38.776Z,9.95
2018-03-21T02:44:06.254Z,8.02
2018-03-21T02:46:33.706Z,7.47
2018-03-21T02:49:01.182Z,9.30
2018-03-21T02:51:28.679Z,8.77
2018-03-21T02:53:56.169Z,9.60
2018-03-21T02:56:23.618Z,9.02
2018-03-21T02:58:51.748Z,11.55
2018-03-21T03:01:19.203Z,6.15
2018-03-21T03:03:46.699Z,9.00
2018-03-21T03:06:14.137Z,9.25
2018-03-21T03:08:41.607Z,9.05
2018-03-21T03:11:09.072Z,8.25
2018-03-21T03:13:36.526Z,7.50
2018-03-21T03:16:04.078Z,9.88
2018-03-21T03:18:31.543Z,7.68
2018-03-21T03:20:59.127Z,8.77
2018-03-21T03:23:26.550Z,6.70
2018-03-21T03:25:54.055Z,9.35
2018-03-21T03:28:21.505Z,6.30
2018-03-21T03:30:49.065Z,5.90
2018-03-21T03:33:16.555Z,7.78
2018-03-21T03:35:44.740Z,5.18
2018-03-21T03:38:12.216Z,9.75
2018-03-21T03:40:39.767Z,12.90
2018-03-21T03:43:07.274Z,5.50
2018-03-21T03:45:34.723Z,7.45
2018-03-21T03:48:02.192Z,7.37
2018-03-21T03:50:29.735Z,8.88
2018-03-21T03:52:57.399Z,6.30
2018-03-21T03:55:24.852Z,4.60
2018-03-21T03:57:52.316Z,6.25
2018-03-21T04:00:20.792Z,6.53
2018-03-21T04:02:48.277Z,7.35
2018-03-21T04:05:15.740Z,6.00
2018-03-21T04:07:43.181Z,7.47
2018-03-21T04:10:10.667Z,5.18
2018-03-21T04:12:38.119Z,7.82
2018-03-21T04:15:06.404Z,4.32
2018-03-21T04:17:33.906Z,8.60
2018-03-21T04:20:01.373Z,6.50
2018-03-21T04:22:31.488Z,11.55
2018-03-21T04:24:58.966Z,7.20
2018-03-21T04:27:26.422Z,6.37
2018-03-21T04:29:53.955Z,6.47
2018-03-21T04:32:21.473Z,5.53
2018-03-21T04:34:48.927Z,5.60
2018-03-21T04:37:16.406Z,6.80
2018-03-21T04:39:43.887Z,5.45
2018-03-21T04:42:11.404Z,6.80
2018-03-21T04:44:38.854Z,5.90
2018-03-21T04:47:06.383Z,4.93
2018-03-21T04:49:34.754Z,5.82
2018-03-21T04:52:02.336Z,6.43
2018-03-21T04:54:29.804Z,6.90
2018-03-21T04:56:57.294Z,5.72
2018-03-21T04:59:25.530Z,4.05
2018-03-21T05:01:53.043Z,6.50
2018-03-21T05:04:21.237Z,5.30
2018-03-21T05:06:49.305Z,11.60
2018-03-21T05:09:16.771Z,5.75
2018-03-21T05:11:44.259Z,6.18
2018-03-21T05:14:11.797Z,4.80
2018-03-21T05:16:39.260Z,9.23
2018-03-21T05:19:06.711Z,4.60
2018-03-21T05:21:34.167Z,8.02
2018-03-21T05:24:01.669Z,5.78
2018-03-21T05:26:29.604Z,5.55
2018-03-21T05:28:57.556Z,10.25
2018-03-21T05:31:25.005Z,5.30
2018-03-21T05:33:52.500Z,4.85
2018-03-21T05:36:20.761Z,5.50
2018-03-21T05:38:48.228Z,4.95
2018-03-21T05:41:16.550Z,7.47
2018-03-21T05:43:44.775Z,5.75
2018-03-21T05:46:13.014Z,7.00
2018-03-21T05:48:40.494Z,7.55
2018-03-21T05:51:07.979Z,6.78
2018-03-21T05:53:35.456Z,6.50
2018-03-21T05:56:03.417Z,6.05
2018-03-21T05:58:30.903Z,7.32
2018-03-21T06:00:58.369Z,4.70
2018-03-21T06:03:25.899Z,4.28
2018-03-21T06:05:53.448Z,6.28
2018-03-21T06:08:20.880Z,6.05
2018-03-21T06:10:49.108Z,5.97
2018-03-21T06:13:16.568Z,5.12
2018-03-21T06:15:44.283Z,10.23
2018-03-21T06:18:11.791Z,5.28
2018-03-21T06:20:40.060Z,5.80
2018-03-21T06:23:07.595Z,8.00
2018-03-21T06:25:35.128Z,4.45
2018-03-21T06:28:02.648Z,6.10
2018-03-21T06:30:30.133Z,5.40
2018-03-21T06:32:58.385Z,5.18
2018-03-21T06:35:25.897Z,4.15
2018-03-21T06:37:53.395Z,7.22
2018-03-21T06:40:20.846Z,4.75
2018-03-21T06:42:48.358Z,3.28
2018-03-21T06:45:15.802Z,6.32
2018-03-21T06:47:43.269Z,5.57
2018-03-21T06:50:10.758Z,3.92
2018-03-21T06:52:38.261Z,7.30
2018-03-21T06:55:05.711Z,4.28
2018-03-21T06:57:33.968Z,4.20
2018-03-21T07:00:01.413Z,6.90
2018-03-21T07:02:28.914Z,5.78
2018-03-21T07:04:56.504Z,6.03
2018-03-21T07:07:24.008Z,3.50
2018-03-21T07:09:52.236Z,4.37
2018-03-21T07:12:19.772Z,8.02
2018-03-21T07:14:59.322Z,4.62
2018-03-21T07:17:26.769Z,4.22
2018-03-21T07:19:54.223Z,6.78
2018-03-21T07:22:21.680Z,6.60
2018-03-21T07:24:49.138Z,3.08
2018-03-21T07:27:16.602Z,4.20
2018-03-21T07:29:44.170Z,4.53
2018-03-21T07:32:11.620Z,4.30
2018-03-21T07:34:39.077Z,6.80
2018-03-21T07:37:06.514Z,4.55
2018-03-21T07:39:34.009Z,5.57
2018-03-21T07:42:01.513Z,3.40
2018-03-21T07:44:29.840Z,4.05
2018-03-21T07:46:57.282Z,4.10
2018-03-21T07:49:24.743Z,5.20
2018-03-21T07:51:52.213Z,6.80
2018-03-21T07:54:20.426Z,4.40
2018-03-21T07:56:48.652Z,8.73
2018-03-21T07:59:16.098Z,5.07
2018-03-21T08:01:43.550Z,3.28
2018-03-21T08:04:11.036Z,4.03
2018-03-21T08:06:38.501Z,4.75
2018-03-21T08:09:05.949Z,3.20
2018-03-21T08:11:33.478Z,4.68
2018-03-21T08:14:00.905Z,5.28
2018-03-21T08:16:28.360Z,7.25
2018-03-21T08:18:55.800Z,8.30
2018-03-21T08:21:24.039Z,6.93
2018-03-21T08:23:51.492Z,11.68
2018-03-21T08:26:19.012Z,4.15
2018-03-21T08:28:46.510Z,4.40
2018-03-21T08:31:13.972Z,4.85
2018-03-21T08:33:41.421Z,3.67
2018-03-21T08:36:08.891Z,5.57
2018-03-21T08:38:36.399Z,2.80
2018-03-21T08:41:03.863Z,3.87
2018-03-21T08:43:31.333Z,4.07
2018-03-21T08:45:58.759Z,8.33
2018-03-21T08:48:26.988Z,5.00
2018-03-21T08:50:54.452Z,3.10
2018-03-21T08:53:21.902Z,5.70
2018-03-21T08:55:49.361Z,3.80
2018-03-21T08:58:16.820Z,3.40
2018-03-21T09:00:44.692Z,3.13
2018-03-21T09:03:12.155Z,4.30
2018-03-21T09:05:40.388Z,2.30
2018-03-21T09:08:07.855Z,2.57
2018-03-21T09:10:35.300Z,6.60
2018-03-21T09:13:02.781Z,4.00
2018-03-21T09:15:30.236Z,3.73
2018-03-21T09:17:57.696Z,5.00
2018-03-21T09:20:25.323Z,4.70
2018-03-21T09:22:52.777Z,2.80
2018-03-21T09:25:20.219Z,5.60
2018-03-21T09:27:47.720Z,3.60
2018-03-21T09:30:15.177Z,2.97
2018-03-21T09:32:42.652Z,2.30
2018-03-21T09:35:10.859Z,4.07
2018-03-21T09:37:38.353Z,2.73
2018-03-21T09:40:05.796Z,3.20
2018-03-21T09:42:33.271Z,2.90
2018-03-21T09:45:00.735Z,2.77
2018-03-21T09:47:28.167Z,2.70
2018-03-21T09:49:55.636Z,4.37
2018-03-21T09:52:23.079Z,2.37
2018-03-21T09:54:50.555Z,4.03
2018-03-21T09:57:17.996Z,4.83
2018-03-21T09:59:45.448Z,4.60
2018-03-21T10:02:13.554Z,5.00
2018-03-21T10:04:41.000Z,4.50
2018-03-21T10:07:08.517Z,3.10
2018-03-21T10:09:35.962Z,4.33
2018-03-21T10:12:03.437Z,2.30
2018-03-21T10:14:30.934Z,1.83
2018-03-21T10:16:58.399Z,7.10
2018-03-21T10:19:26.625Z,4.63
2018-03-21T10:21:54.124Z,5.63
2018-03-21T10:24:21.630Z,3.43
2018-03-21T10:26:49.081Z,2.60
2018-03-21T10:29:16.607Z,3.50
2018-03-21T10:31:44.035Z,1.67
2018-03-21T10:34:11.492Z,2.63
2018-03-21T10:36:39.024Z,3.63
2018-03-21T10:39:06.472Z,2.07
2018-03-21T10:41:33.929Z,3.10
2018-03-21T10:44:01.886Z,4.73
2018-03-21T10:46:29.346Z,2.40
2018-03-21T10:48:56.846Z,3.10
2018-03-21T10:51:24.257Z,3.37
2018-03-21T10:53:51.749Z,2.80
2018-03-21T10:56:19.278Z,3.57
2018-03-21T10:58:46.724Z,3.40
2018-03-21T11:01:19.891Z,2.80
2018-03-21T11:03:53.748Z,2.80
2018-03-21T11:06:21.230Z,3.93
2018-03-21T11:08:49.428Z,6.77
2018-03-21T11:11:17.640Z,3.63
2018-03-21T11:13:45.138Z,2.10
2018-03-21T11:16:12.592Z,1.37
2018-03-21T11:18:40.074Z,2.10
2018-03-21T11:21:08.311Z,4.80
2018-03-21T11:23:35.738Z,1.73
2018-03-21T11:26:03.201Z,2.20
2018-03-21T11:28:30.875Z,2.30
2018-03-21T11:30:58.341Z,2.53
2018-03-21T11:33:25.853Z,3.80
2018-03-21T11:35:53.328Z,3.47
2018-03-21T11:38:20.779Z,1.73
2018-03-21T11:40:48.337Z,2.83
2018-03-21T11:43:15.837Z,2.50
2018-03-21T11:45:43.292Z,3.60
2018-03-21T11:48:10.808Z,2.30
2018-03-21T11:50:38.285Z,3.13
2018-03-21T11:53:05.787Z,2.13
2018-03-21T11:55:34.023Z,2.37
2018-03-21T11:58:01.474Z,4.00
2018-03-21T12:00:28.955Z,2.37
2018-03-21T12:02:56.412Z,4.00
2018-03-21T12:05:23.869Z,2.40
2018-03-21T12:07:52.111Z,2.07
2018-03-21T12:10:19.597Z,3.33
2018-03-21T12:12:47.108Z,2.85
2018-03-21T12:15:14.568Z,2.75
2018-03-21T12:17:42.046Z,3.53
2018-03-21T12:20:09.516Z,2.77
2018-03-21T12:22:37.084Z,3.55
2018-03-21T12:25:05.334Z,3.10
2018-03-21T12:27:32.814Z,1.90
2018-03-21T12:30:01.052Z,2.10
2018-03-21T12:32:28.537Z,1.75
2018-03-21T12:34:55.988Z,4.93
2018-03-21T12:37:23.579Z,2.60
2018-03-21T12:39:51.045Z,3.80
2018-03-21T12:42:18.516Z,2.58
2018-03-21T12:44:46.049Z,5.62
2018-03-21T12:47:13.623Z,3.58
2018-03-21T12:49:41.090Z,1.93
2018-03-21T12:52:08.528Z,2.20
2018-03-21T12:54:35.997Z,2.00
2018-03-21T12:57:03.646Z,4.57
2018-03-21T12:59:31.112Z,2.10
2018-03-21T13:01:58.552Z,2.75
2018-03-21T13:04:26.785Z,2.80
2018-03-21T13:06:54.219Z,3.03
2018-03-21T13:09:21.693Z,4.07
2018-03-21T13:11:49.337Z,3.67
2018-03-21T13:14:16.777Z,3.20
2018-03-21T13:16:44.227Z,4.60
2018-03-21T13:19:11.754Z,2.00
2018-03-21T13:21:39.294Z,4.47
2018-03-21T13:24:06.779Z,2.57
2018-03-21T13:26:35.001Z,2.50
2018-03-21T13:29:02.499Z,2.93
2018-03-21T13:31:29.944Z,3.67
2018-03-21T13:33:57.396Z,3.37
2018-03-21T13:36:24.865Z,6.07
2018-03-21T13:38:53.183Z,3.30
2018-03-21T13:41:20.677Z,5.37
2018-03-21T13:43:48.112Z,2.70
2018-03-21T13:46:15.581Z,3.67
2018-03-21T13:48:43.034Z,2.10
2018-03-21T13:51:10.509Z,2.20
2018-03-21T13:53:37.979Z,7.57
2018-03-21T13:56:05.431Z,2.40
2018-03-21T13:58:33.372Z,5.13
2018-03-21T14:01:00.824Z,5.57
2018-03-21T14:03:28.279Z,4.40
2018-03-21T14:05:55.785Z,4.37
2018-03-21T14:08:24.005Z,2.73
2018-03-21T14:10:51.571Z,3.87
2018-03-21T14:13:19.025Z,3.30
2018-03-21T14:15:46.500Z,3.50
2018-03-21T14:18:13.969Z,5.90
2018-03-21T14:20:41.484Z,2.60
2018-03-21T14:23:09.631Z,6.70
2018-03-21T14:25:37.149Z,3.17
2018-03-21T14:28:04.633Z,5.97
2018-03-21T14:30:32.083Z,3.83
2018-03-21T14:32:59.557Z,3.47
2018-03-21T14:35:27.000Z,4.53
2018-03-21T14:37:55.223Z,3.60
2018-03-21T14:40:22.695Z,3.03
2018-03-21T14:42:50.922Z,5.80
2018-03-21T14:45:18.380Z,4.47
2018-03-21T14:47:45.844Z,4.47
2018-03-21T14:50:13.328Z,1.87
2018-03-21T14:52:40.800Z,2.47
2018-03-21T14:55:08.246Z,3.73
2018-03-21T14:57:35.779Z,4.95
2018-03-21T15:00:03.953Z,2.10
2018-03-21T15:02:31.444Z,2.60
2018-03-21T15:04:58.970Z,2.10
2018-03-21T15:07:26.415Z,2.92
2018-03-21T15:09:53.903Z,4.12
2018-03-21T15:12:21.365Z,3.45
2018-03-21T15:14:48.836Z,7.40
2018-03-21T15:17:16.298Z,2.72
2018-03-21T15:19:44.532Z,3.30
2018-03-21T15:22:12.086Z,3.22
2018-03-21T15:24:39.546Z,4.30
2018-03-21T15:27:06.991Z,4.03
2018-03-21T15:29:34.461Z,2.80
2018-03-21T15:32:01.922Z,5.35
2018-03-21T15:34:29.510Z,2.47
2018-03-21T15:36:57.808Z,2.40
2018-03-21T15:39:26.040Z,2.70
2018-03-21T15:41:53.500Z,2.78
2018-03-21T15:44:20.960Z,2.87
2018-03-21T15:46:48.461Z,4.15
2018-03-21T15:49:15.903Z,4.07
2018-03-21T15:51:44.145Z,3.25
2018-03-21T15:54:11.709Z,2.37
2018-03-21T15:56:39.163Z,2.17
2018-03-21T15:59:06.603Z,3.08
2018-03-21T16:01:34.072Z,6.82
2018-03-21T16:04:01.609Z,3.90
2018-03-21T16:06:29.077Z,3.87
2018-03-21T16:08:56.521Z,3.97
2018-03-21T16:11:24.000Z,3.30
2018-03-21T16:13:51.553Z,8.82
2018-03-21T16:16:18.978Z,2.42
2018-03-21T16:18:46.467Z,2.92
2018-03-21T16:21:13.908Z,3.08
2018-03-21T16:23:42.010Z,4.37
2018-03-21T16:26:09.468Z,3.00
2018-03-21T16:28:36.977Z,2.72
2018-03-21T16:31:04.457Z,3.20
2018-03-21T16:33:31.937Z,3.30
2018-03-21T16:35:59.393Z,3.35
2018-03-21T16:38:26.895Z,4.47
2018-03-21T16:40:54.337Z,7.50
2018-03-21T16:43:21.907Z,2.95
2018-03-21T16:45:49.364Z,3.05
2018-03-21T16:48:16.836Z,2.37
2018-03-21T16:50:44.273Z,5.22
2018-03-21T16:53:11.769Z,3.47
2018-03-21T16:55:39.182Z,3.25
2018-03-21T16:58:06.649Z,3.30
2018-03-21T17:00:34.123Z,4.15
2018-03-21T17:03:01.564Z,4.40
2018-03-21T17:05:29.014Z,5.70
2018-03-21T17:07:56.507Z,4.07
2018-03-21T17:10:24.705Z,5.45
2018-03-21T17:12:52.136Z,2.95
2018-03-21T17:15:19.592Z,2.92
2018-03-21T17:17:47.067Z,4.12
2018-03-21T17:20:14.540Z,5.05
2018-03-21T17:22:42.769Z,4.80
2018-03-21T17:25:10.245Z,4.60
2018-03-21T17:27:37.704Z,3.85
2018-03-21T17:30:05.188Z,3.05
2018-03-21T17:32:33.405Z,3.67
2018-03-21T17:35:00.865Z,4.65
2018-03-21T17:37:28.295Z,7.25
2018-03-21T17:39:55.765Z,5.20
2018-03-21T17:42:23.248Z,4.62
2018-03-21T17:44:50.753Z,3.45
2018-03-21T17:47:18.208Z,3.08
2018-03-21T17:49:45.658Z,4.28
2018-03-21T17:52:13.943Z,4.28
2018-03-21T17:54:41.359Z,2.85
2018-03-21T17:57:08.810Z,5.12
2018-03-21T17:59:36.256Z,4.50
2018-03-21T18:02:04.545Z,3.05
2018-03-21T18:04:31.981Z,3.65
2018-03-21T18:06:59.455Z,3.67
2018-03-21T18:09:27.159Z,6.93
2018-03-21T18:11:54.786Z,7.28
2018-03-21T18:14:22.549Z,5.20
2018-03-21T18:16:50.293Z,5.82
2018-03-21T18:19:17.758Z,7.10
2018-03-21T18:21:45.202Z,7.72
2018-03-21T18:24:12.716Z,8.77
2018-03-21T18:26:41.092Z,8.10
2018-03-21T18:29:09.330Z,7.78
2018-03-21T18:31:38.015Z,16.52
2018-03-21T18:34:05.503Z,5.72
2018-03-21T18:36:32.973Z,12.95
2018-03-21T18:39:00.458Z,11.18
2018-03-21T18:41:27.903Z,9.45
2018-03-21T18:43:55.373Z,8.63
2018-03-21T18:46:22.843Z,9.73
2018-03-21T18:48:50.330Z,13.15
2018-03-21T18:51:17.769Z,10.70
2018-03-21T18:53:45.219Z,11.45
2018-03-21T18:56:12.689Z,10.88
2018-03-21T18:58:40.138Z,9.23
2018-03-21T19:01:07.638Z,10.80
2018-03-21T19:03:35.069Z,17.25
2018-03-21T19:06:03.296Z,12.55
2018-03-21T19:08:30.749Z,12.93
2018-03-21T19:10:58.217Z,15.35
2018-03-21T19:13:25.672Z,13.57
2018-03-21T19:15:53.209Z,12.32
2018-03-21T19:18:20.676Z,15.35
2018-03-21T19:20:48.124Z,11.12
2018-03-21T19:23:16.628Z,11.38
2018-03-21T19:25:44.161Z,16.15
2018-03-21T19:28:12.115Z,10.52
2018-03-21T19:30:39.632Z,8.43
2018-03-21T19:33:07.141Z,11.38
2018-03-21T19:35:34.593Z,12.63
2018-03-21T19:38:02.045Z,7.95
2018-03-21T19:40:29.476Z,9.82
2018-03-21T19:42:57.012Z,10.07
2018-03-21T19:45:24.463Z,8.80
2018-03-21T19:47:51.917Z,10.68
2018-03-21T19:50:19.352Z,11.38
2018-03-21T19:52:46.809Z,8.00
2018-03-21T19:55:14.264Z,8.77
2018-03-21T19:57:41.754Z,9.02
2018-03-21T20:00:10.188Z,9.52
2018-03-21T20:02:37.645Z,10.63
2018-03-21T20:05:05.104Z,10.18
2018-03-21T20:07:32.580Z,9.65
2018-03-21T20:10:00.025Z,14.98
2018-03-21T20:12:27.483Z,10.98
2018-03-21T20:14:54.972Z,10.80
2018-03-21T20:17:22.450Z,10.98
2018-03-21T20:19:50.689Z,11.15
2018-03-21T20:22:18.156Z,10.55
2018-03-21T20:24:46.388Z,16.50
2018-03-21T20:27:13.837Z,12.65
2018-03-21T20:29:41.307Z,16.92
2018-03-21T20:32:08.752Z,15.82
2018-03-21T20:34:36.240Z,13.23
2018-03-21T20:37:03.810Z,13.15
2018-03-21T20:39:31.286Z,15.65
2018-03-21T20:41:59.493Z,15.38
2018-03-21T20:44:26.974Z,14.75
2018-03-21T20:46:54.471Z,18.40
2018-03-21T20:49:22.725Z,12.73
2018-03-21T20:51:50.195Z,15.65
2018-03-21T20:54:18.410Z,14.70
2018-03-21T20:56:45.950Z,19.12
2018-03-21T20:59:13.398Z,14.85
2018-03-21T21:01:40.886Z,15.25
2018-03-21T21:04:08.391Z,15.10
2018-03-21T21:06:35.983Z,18.92
2018-03-21T21:09:03.441Z,13.05
2018-03-21T21:11:30.922Z,19.73
2018-03-21T21:13:58.396Z,23.83
2018-03-21T21:16:25.891Z,15.73
2018-03-21T21:18:53.332Z,22.67
2018-03-21T21:21:20.798Z,21.58
2018-03-21T21:23:48.316Z,25.92
2018-03-21T21:26:15.859Z,21.00
2018-03-21T21:28:43.409Z,16.62
2018-03-21T21:31:10.859Z,16.60
2018-03-21T21:33:38.389Z,17.15
2018-03-21T21:36:06.599Z,21.90
2018-03-21T21:38:34.119Z,19.27
2018-03-21T21:41:01.843Z,22.27
2018-03-21T21:43:29.430Z,20.50
2018-03-21T21:45:56.921Z,20.73
2018-03-21T21:48:24.436Z,21.55
2018-03-21T21:50:51.905Z,21.55
2018-03-21T21:53:20.140Z,17.40
2018-03-21T21:55:48.397Z,17.15
2018-03-21T21:58:15.876Z,17.73
2018-03-21T22:00:44.146Z,21.62
2018-03-21T22:03:11.621Z,21.35
2018-03-21T22:05:39.192Z,21.40
2018-03-21T22:08:07.464Z,21.35
2018-03-21T22:10:35.030Z,21.92
2018-03-21T22:13:02.535Z,21.70
2018-03-21T22:15:30.024Z,19.02
2018-03-21T22:17:57.547Z,23.35
2018-03-21T22:20:25.043Z,26.08
2018-03-21T22:22:52.523Z,29.80
2018-03-21T22:25:20.018Z,24.08
2018-03-21T22:27:47.556Z,25.80
2018-03-21T22:30:15.060Z,28.05
2018-03-21T22:32:43.311Z,25.58
2018-03-21T22:35:10.792Z,22.95
2018-03-21T22:37:38.248Z,24.98
2018-03-21T22:40:05.708Z,28.73
2018-03-21T22:42:33.270Z,26.95
2018-03-21T22:45:00.749Z,25.98
2018-03-21T22:47:28.212Z,23.00
2018-03-21T22:49:56.463Z,28.00
2018-03-21T22:52:24.024Z,31.40
2018-03-21T22:54:51.497Z,25.23
2018-03-21T22:57:20.793Z,30.12
2018-03-21T22:59:49.062Z,34.97
2018-03-21T23:02:16.535Z,28.85
2018-03-21T23:04:43.999Z,31.52
2018-03-21T23:07:11.476Z,34.85
2018-03-21T23:09:38.916Z,30.45
2018-03-21T23:12:06.394Z,28.67
2018-03-21T23:14:33.902Z,29.87
2018-03-21T23:17:01.367Z,27.37
2018-03-21T23:19:29.609Z,35.75
2018-03-21T23:21:57.078Z,24.37
2018-03-21T23:24:24.571Z,30.17
2018-03-21T23:26:52.977Z,33.00
2018-03-21T23:29:20.471Z,26.12
2018-03-21T23:31:47.938Z,29.70
2018-03-21T23:34:15.401Z,27.75
2018-03-21T23:36:43.039Z,28.25
2018-03-21T23:39:10.509Z,34.60
2018-03-21T23:41:37.964Z,27.83
2018-03-21T23:44:05.465Z,29.70
2018-03-21T23:46:32.940Z,32.60
2018-03-21T23:49:00.429Z,29.60
2018-03-21T23:51:27.909Z,27.15
2018-03-21T23:53:55.420Z,33.97
2018-03-21T23:56:22.909Z,32.45
2018-03-21T23:58:50.430Z,28.83
